createdAt,value
2017-05-12T00:11:22.000Z,49.022
2017-05-12T00:31:22.000Z,49.116
2017-05-12T00:41:22.000Z,49.156
2017-05-12T00:51:22.000Z,49.197
2017-05-12T01:11:22.000Z,49.215
2017-05-12T01:31:22.000Z,49.32
2017-05-12T01:41:22.000Z,49.361
2017-05-12T01:51:22.000Z,49.415
2017-05-12T02:11:22.000Z,49.42
2017-05-12T02:31:22.000Z,49.546
2017-05-12T02:41:22.000Z,49.587
2017-05-12T02:51:22.000Z,49.596
2017-05-12T03:01:22.000Z,49.668
2017-05-12T03:11:22.000Z,49.688
2017-05-12T03:31:22.000Z,49.781
2017-05-12T03:51:22.000Z,49.735
2017-05-12T04:01:22.000Z,49.862
2017-05-12T04:11:23.000Z,50.067
2017-05-12T04:31:23.000Z,50.202
2017-05-12T04:51:23.000Z,50.21
2017-05-12T05:01:23.000Z,50.186
2017-05-12T05:11:23.000Z,50.216
2017-05-12T05:31:23.000Z,50.192
2017-05-12T05:51:23.000Z,50.168
2017-05-12T06:01:23.000Z,50.188
2017-05-12T06:11:23.000Z,50.198
2017-05-12T06:31:23.000Z,50.406
2017-05-12T06:51:23.000Z,50.534
2017-05-12T07:01:23.000Z,50.609
2017-05-12T07:11:23.000Z,50.535
2017-05-12T07:31:23.000Z,50.613
2017-05-12T07:51:23.000Z,50.743
2017-05-12T08:01:23.000Z,50.82
2017-05-12T08:11:23.000Z,50.789
2017-05-12T08:31:23.000Z,50.677
2017-05-12T08:51:23.000Z,50.618
2017-05-12T09:01:23.000Z,50.563
2017-05-12T09:11:23.000Z,50.651
2017-05-12T09:31:23.000Z,50.408
2017-05-12T09:51:23.000Z,52.27
2017-05-12T10:01:23.000Z,53.173
2017-05-12T10:11:23.000Z,53.039
2017-05-12T10:31:23.000Z,53.013
2017-05-12T10:51:23.000Z,52.904
2017-05-12T11:01:23.000Z,52.715
2017-05-12T11:11:23.000Z,52.05
2017-05-12T11:31:23.000Z,51.833
2017-05-12T11:51:23.000Z,50.102
2017-05-12T12:01:23.000Z,49.835
2017-05-12T12:11:23.000Z,50.447
2017-05-12T12:31:24.000Z,49.881
2017-05-12T12:51:24.000Z,50.454
2017-05-12T13:01:24.000Z,50.57
2017-05-12T13:11:24.000Z,50.6
2017-05-12T13:31:24.000Z,50.716
2017-05-12T13:51:24.000Z,50.72
2017-05-12T14:01:24.000Z,50.124
2017-05-12T14:11:24.000Z,49.965
2017-05-12T14:31:24.000Z,49.808
2017-05-12T14:51:24.000Z,49.839
2017-05-12T15:01:24.000Z,49.958
2017-05-12T15:11:24.000Z,50.022
2017-05-12T15:31:24.000Z,49.94
2017-05-12T15:51:24.000Z,50.031
2017-05-12T16:11:24.000Z,50.577
2017-05-12T16:21:24.000Z,50.786
2017-05-12T16:31:24.000Z,50.847
2017-05-12T16:51:24.000Z,51.062
2017-05-12T17:11:24.000Z,50.934
2017-05-12T17:21:24.000Z,50.868
2017-05-12T17:31:24.000Z,50.989
2017-05-12T17:51:24.000Z,51.547
2017-05-12T18:11:24.000Z,52.142
2017-05-12T18:21:24.000Z,52.956
2017-05-12T18:31:24.000Z,53.196
2017-05-12T18:51:24.000Z,53.141
2017-05-12T19:11:24.000Z,52.774
2017-05-12T19:31:24.000Z,52.613
2017-05-12T19:51:28.000Z,52.721
2017-05-12T20:11:26.000Z,52.37
2017-05-12T20:21:24.000Z,52.249
2017-05-12T20:31:25.000Z,52.501
2017-05-12T20:51:25.000Z,52.313
2017-05-12T21:11:25.000Z,52.508
2017-05-12T21:21:25.000Z,52.461
2017-05-12T21:31:25.000Z,52.768
2017-05-12T21:51:25.000Z,53.118
2017-05-12T22:11:25.000Z,53.319
2017-05-12T22:21:25.000Z,53.366
2017-05-12T22:31:25.000Z,53.469
2017-05-12T22:51:25.000Z,53.447
2017-05-12T23:11:25.000Z,53.414
2017-05-12T23:21:25.000Z,53.418
2017-05-12T23:31:25.000Z,53.467
2017-05-12T23:51:25.000Z,53.533
